Thunder radar more information blitzortung!


Rain radar more information rain snow radar


   Es ist keine erhoehte Aufmerksamkeit aufgrund des Wetters notwendig.   -   Es gibt keine Warnungen :-).

METAR-Meldungen aus der Umgebung

Warning: A non-numeric value encountered in /mnt/web301/a1/70/5400070/htdocs/weather28/metar/metarDisplay.php on line 166
   
EBBR - Brussels International Airport, Belgium
Entfernung von der Station bis: W 14 km
Aktualisierung: 27-06-2019 10:20
leicht bewölkt  
leicht bewölkt  
   Wind: NO 11.1 km/h
Wind: NO 11.1 km/h
Temperatur: 18°C
Taupunkt: 14°C
Luftfeuchte: 78%
Luftdruck: 1028 hPa
Bewölkt: leicht bewölkt
Sichtbarkeit: More than 10 km
Bewölkung: leicht bewölkt 1700 ft
EBBR 270820Z 05006KT 360V100 9999 FEW017 18/14 Q1028 NOSIG
EBBE - Beauvechain (Bevekom), Belgium
Entfernung von der Station bis: SSO 17 km
Aktualisierung: 27-06-2019 09:55
leicht bewölkt  
leicht bewölkt  
   Wind: NO 14.8 km/h
Wind: NO 14.8 km/h
Temperatur: 18°C
Taupunkt: 13°C
Luftfeuchte: 73%
Luftdruck: 1028 hPa
Bewölkt: leicht bewölkt
Sichtbarkeit: More than 10 km
Bewölkung: leicht bewölkt 1500 ft
EBBE 270755Z 04008KT 9999 FEW015 18/13 Q1028 BLU BLU
EBDT - Schaffen, Belgium
Entfernung von der Station bis: ONO 29 km
Aktualisierung: 27-06-2019 09:55
leicht bewölkt  
leicht bewölkt  
   Wind: NNO 13 km/h
Wind: NNO 13 km/h
Temperatur: 18°C
Taupunkt: 13°C
Luftfeuchte: 73%
Luftdruck: 1028 hPa
Bewölkt: leicht bewölkt
Sichtbarkeit: More than 10 km
Bewölkung: leicht bewölkt 1800 ft
EBDT 270755Z 03007KT 9999 FEW018 18/13 Q1028 BLU BLU
EBAW - Antwerp/Deurne, Belgium
Entfernung von der Station bis: NNW 38 km
Aktualisierung: 27-06-2019 10:20
Klar  
Klar  
   Wind: NO 14.8 km/h
Wind: NO 14.8 km/h
Temperatur: 18°C
Taupunkt: 12°C
Luftfeuchte: 68%
Luftdruck: 1029 hPa
Sichtbarkeit: More than 10 km
Bewölkung: Klar
EBAW 270820Z 04008KT 010V070 CAVOK 18/12 Q1029 NOSIG
EBCI - Charleroi/Gosselies, Belgium
Entfernung von der Station bis: SSW 51 km
Aktualisierung: 27-06-2019 10:20
leicht bewölkt  
leicht bewölkt  
   Wind: ONO 22.2 km/h
Wind: ONO 22.2 km/h
Temperatur: 18°C
Taupunkt: 13°C
Luftfeuchte: 73%
Luftdruck: 1028 hPa
Bewölkt: leicht bewölkt
Sichtbarkeit: More than 10 km
Bewölkung: leicht bewölkt 1000 ft
EBCI 270820Z 06012KT 9999 FEW010 18/13 Q1028 NOSIG
EBLG - Bierset/Liege, Belgium
Entfernung von der Station bis: OSO 60 km
Aktualisierung: 27-06-2019 10:20
Stark bewölkt  
Stark bewölkt  
   Wind: NNO 18.5 km/h
Wind: NNO 18.5 km/h
Temperatur: 17°C
Taupunkt: 13°C
Luftfeuchte: 77%
Luftdruck: 1028 hPa
Bewölkt: Stark bewölkt
Sichtbarkeit: 9 km
Bewölkung: Stark bewölkt 1200 ft
EBLG 270820Z 02010KT 9000 BKN012 17/13 Q1028 NOSIG

Script entwickelt von  Saratoga-weather.org Angepasst für das Template von  Weerstation Leuven